Time;durP1;ratioP1;P1;durP2;ratioP2;P2;SDS_P1;SDS_P2;PMS_P1;PMS_P2;Temp;Humidity;BMP_temperature;BMP_pressure;BME280_temperature;BME280_humidity;BME280_pressure;Samples;Min_cycle;Max_cycle;Signal;HPM_P1;HPM_P2
2023/04/20 00:01:24;;;;;;;14.37;9.40;;;;;;;7.12;70.69;96083.59;5028385;28;20199;-69
2023/04/20 00:03:50;;;;;;;13.27;10.00;;;;;;;7.25;70.13;96078.78;5027498;28;20283;-68
2023/04/20 00:06:15;;;;;;;15.60;9.73;;;;;;;7.15;70.18;96070.44;5020099;28;20183;-68
2023/04/20 00:08:42;;;;;;;10.57;9.57;;;;;;;7.12;70.57;96065.34;5009116;28;20184;-69
2023/04/20 00:11:08;;;;;;;11.03;8.50;;;;;;;7.08;70.71;96066.34;5028363;28;20188;-68
2023/04/20 00:13:33;;;;;;;11.37;10.17;;;;;;;6.96;71.35;96065.84;5026007;28;21224;-70
2023/04/20 00:15:59;;;;;;;11.73;9.13;;;;;;;7.08;71.01;96068.94;5027814;28;20292;-68
2023/04/20 00:18:24;;;;;;;13.83;10.20;;;;;;;7.05;71.05;96063.84;5028274;28;20836;-67
2023/04/20 00:20:50;;;;;;;11.80;10.00;;;;;;;7.17;70.52;96060.78;5028058;28;20199;-69
2023/04/20 00:23:15;;;;;;;11.50;9.47;;;;;;;7.14;70.82;96060.91;5028446;28;20602;-67
2023/04/20 00:25:41;;;;;;;9.27;8.37;;;;;;;7.08;71.08;96063.72;5028230;28;20187;-68
2023/04/20 00:28:06;;;;;;;11.30;9.10;;;;;;;7.11;71.02;96059.28;5028045;28;20172;-69
2023/04/20 00:30:32;;;;;;;10.93;9.83;;;;;;;7.08;71.02;96056.75;5028130;28;20175;-68
2023/04/20 00:32:57;;;;;;;12.30;9.83;;;;;;;7.14;70.63;96059.16;5027773;28;20199;-68
2023/04/20 00:35:23;;;;;;;11.43;10.30;;;;;;;7.16;71.07;96044.28;5027934;28;20183;-68
2023/04/20 00:37:48;;;;;;;13.23;10.43;;;;;;;7.17;70.29;96047.75;5027536;28;20175;-69
2023/04/20 00:40:13;;;;;;;17.33;9.30;;;;;;;7.06;69.96;96039.44;5027773;28;20276;-69
2023/04/20 00:42:40;;;;;;;12.00;8.23;;;;;;;7.14;69.01;96032.22;5027639;28;20198;-68
2023/04/20 00:45:06;;;;;;;13.93;9.60;;;;;;;6.85;69.75;96023.66;5027520;28;20598;-69
2023/04/20 00:47:31;;;;;;;9.93;8.23;;;;;;;7.00;69.62;96032.69;5027433;28;20414;-69
2023/04/20 00:49:57;;;;;;;9.07;8.20;;;;;;;6.96;69.39;96020.66;5027430;28;20245;-69
2023/04/20 00:52:22;;;;;;;10.83;8.53;;;;;;;6.95;68.85;96021.59;5027699;28;20652;-68
2023/04/20 00:54:48;;;;;;;10.33;8.80;;;;;;;6.96;69.41;96012.84;5027626;28;20675;-68
2023/04/20 00:57:17;;;;;;;8.40;7.50;;;;;;;6.83;69.30;96006.34;5025820;28;20217;-68
2023/04/20 00:59:43;;;;;;;9.40;8.50;;;;;;;6.81;68.12;96010.78;5026044;28;20226;-68
2023/04/20 01:02:08;;;;;;;8.87;7.97;;;;;;;6.72;68.70;96007.59;5027362;28;20438;-68
2023/04/20 01:04:38;;;;;;;11.17;10.00;;;;;;;6.66;69.34;96006.94;5027442;28;20250;-68
2023/04/20 01:07:04;;;;;;;10.50;8.60;;;;;;;6.54;69.37;95993.44;5027117;28;20919;-68
2023/04/20 01:09:30;;;;;;;10.87;8.83;;;;;;;6.67;68.97;95990.41;5027288;28;20414;-68
2023/04/20 01:11:55;;;;;;;13.00;8.70;;;;;;;6.53;69.11;95991.72;5028530;28;20199;-69
2023/04/20 01:14:20;;;;;;;12.83;8.07;;;;;;;6.31;69.01;95989.00;5027994;28;20176;-68
2023/04/20 01:16:46;;;;;;;11.83;8.83;;;;;;;6.45;68.41;95980.72;5026892;28;20171;-69
2023/04/20 01:19:12;;;;;;;12.93;8.23;;;;;;;6.51;67.63;95983.09;5027224;28;20179;-68
2023/04/20 01:21:38;;;;;;;11.27;9.03;;;;;;;6.45;67.91;95970.31;5027061;28;20214;-67
2023/04/20 01:24:04;;;;;;;8.60;7.67;;;;;;;6.42;67.68;95965.19;5027139;28;20234;-67
2023/04/20 01:26:30;;;;;;;10.67;9.17;;;;;;;6.56;67.60;95965.53;5026667;28;20275;-66
2023/04/20 01:28:55;;;;;;;10.20;8.50;;;;;;;6.44;67.65;95963.38;5027270;28;20508;-67
2023/04/20 01:31:20;;;;;;;11.80;8.63;;;;;;;6.50;67.74;95963.16;5026871;28;20207;-67
2023/04/20 01:33:46;;;;;;;9.97;7.77;;;;;;;6.55;67.80;95960.41;5026979;28;20190;-68
2023/04/20 01:36:12;;;;;;;10.60;8.10;;;;;;;6.54;68.15;95959.56;5026721;28;20178;-67
2023/04/20 01:38:37;;;;;;;10.73;8.63;;;;;;;6.57;68.18;95956.00;5026996;28;20182;-66
2023/04/20 01:41:06;;;;;;;12.40;10.43;;;;;;;6.57;67.99;95943.81;5026995;28;20955;-68
2023/04/20 01:43:33;;;;;;;10.73;7.80;;;;;;;6.64;67.32;95951.38;5027054;28;20552;-69
2023/04/20 01:45:59;;;;;;;11.57;8.00;;;;;;;6.56;66.52;95946.44;5026743;28;20410;-68
2023/04/20 01:48:24;;;;;;;10.27;8.60;;;;;;;6.33;66.58;95947.25;5026748;28;20922;-68
2023/04/20 01:50:51;;;;;;;11.60;9.20;;;;;;;6.46;66.84;95943.31;5026960;28;20414;-67
2023/04/20 01:53:16;;;;;;;13.10;9.23;;;;;;;6.44;66.52;95942.53;5025084;28;20176;-67
2023/04/20 01:55:41;;;;;;;9.00;7.70;;;;;;;6.30;66.65;95939.53;5015068;28;20437;-68
2023/04/20 01:58:07;;;;;;;13.53;8.10;;;;;;;6.19;66.62;95932.13;5011428;28;20168;-68
2023/04/20 02:00:32;;;;;;;8.50;7.60;;;;;;;6.05;66.19;95929.97;5027778;28;20203;-68
2023/04/20 02:02:58;;;;;;;8.07;7.20;;;;;;;5.81;68.15;95925.53;5029455;28;20260;-67
2023/04/20 02:05:23;;;;;;;13.00;7.50;;;;;;;5.65;67.96;95926.03;5028868;28;20175;-70
2023/04/20 02:07:50;;;;;;;11.60;7.93;;;;;;;5.89;67.39;95923.53;5028588;28;20763;-69
2023/04/20 02:10:15;;;;;;;9.10;7.37;;;;;;;5.58;67.60;95932.34;5030723;28;20289;-69
2023/04/20 02:12:41;;;;;;;8.77;7.07;;;;;;;5.66;67.28;95937.28;5030528;28;20492;-69
2023/04/20 02:15:08;;;;;;;10.43;7.80;;;;;;;5.96;66.10;95934.63;5030586;28;20175;-68
2023/04/20 02:17:35;;;;;;;9.77;6.57;;;;;;;6.00;65.52;95942.31;5030316;28;20221;-69
2023/04/20 02:20:00;;;;;;;14.80;7.20;;;;;;;6.07;65.04;95932.50;5030115;28;20671;-68
2023/04/20 02:22:25;;;;;;;10.93;7.17;;;;;;;6.01;64.97;95933.56;5030425;28;20438;-70
2023/04/20 02:24:51;;;;;;;14.40;8.37;;;;;;;6.09;65.43;95933.31;5029231;28;20163;-68
2023/04/20 02:27:16;;;;;;;9.23;6.97;;;;;;;5.82;65.79;95922.88;5029510;28;20175;-68
2023/04/20 02:29:42;;;;;;;7.87;7.03;;;;;;;5.92;65.60;95926.03;5030439;28;20848;-68
2023/04/20 02:32:07;;;;;;;9.67;6.83;;;;;;;5.72;66.00;95919.72;5030116;28;20195;-68
2023/04/20 02:34:33;;;;;;;7.93;7.13;;;;;;;5.61;66.17;95923.59;5030211;28;20494;-68
2023/04/20 02:36:58;;;;;;;7.00;6.13;;;;;;;5.34;67.43;95923.56;5028613;28;20180;-68
2023/04/20 02:39:24;;;;;;;8.40;6.97;;;;;;;5.66;66.62;95924.28;5030185;28;20263;-68
2023/04/20 02:41:49;;;;;;;9.57;6.80;;;;;;;5.76;65.68;95919.63;5030020;28;20203;-69
2023/04/20 02:44:15;;;;;;;7.90;7.03;;;;;;;5.97;65.00;95911.13;5030095;28;20242;-69
2023/04/20 02:46:40;;;;;;;6.93;6.20;;;;;;;6.16;64.39;95906.16;5029715;28;20180;-69
2023/04/20 02:49:06;;;;;;;9.00;6.90;;;;;;;6.00;64.51;95897.16;5029861;28;20179;-69
2023/04/20 02:51:31;;;;;;;10.60;6.83;;;;;;;6.06;64.63;95900.41;5029915;28;20207;-68
2023/04/20 02:53:56;;;;;;;7.27;6.47;;;;;;;5.73;64.86;95892.78;5029705;28;20538;-68
2023/04/20 02:56:22;;;;;;;7.17;5.83;;;;;;;5.95;64.80;95894.69;5029792;28;20199;-68
2023/04/20 02:58:47;;;;;;;8.10;6.53;;;;;;;6.05;64.63;95885.69;5030000;28;20214;-67
2023/04/20 03:01:13;;;;;;;7.90;6.57;;;;;;;6.12;64.16;95883.72;5029579;28;20337;-69
2023/04/20 03:03:39;;;;;;;8.90;7.27;;;;;;;5.78;64.96;95883.97;5029767;28;20305;-69
2023/04/20 03:06:05;;;;;;;7.43;6.70;;;;;;;5.44;66.53;95891.13;5029433;28;20171;-68
2023/04/20 03:08:30;;;;;;;8.13;5.60;;;;;;;5.70;65.35;95892.06;5029771;28;20187;-68
2023/04/20 03:10:55;;;;;;;10.90;7.00;;;;;;;5.78;65.03;95892.63;5029482;28;20171;-69
2023/04/20 03:13:21;;;;;;;14.77;7.30;;;;;;;5.69;65.06;95880.78;5029049;28;20534;-68
2023/04/20 03:15:46;;;;;;;9.23;6.47;;;;;;;5.71;65.42;95881.56;5029226;28;20168;-68
2023/04/20 03:18:12;;;;;;;8.83;6.40;;;;;;;5.77;64.80;95877.09;5029105;28;20176;-68
2023/04/20 03:20:37;;;;;;;7.87;6.70;;;;;;;5.58;65.57;95864.66;5029149;28;20490;-69
2023/04/20 03:23:03;;;;;;;9.60;6.50;;;;;;;5.84;64.45;95868.16;5029299;28;20286;-68
2023/04/20 03:25:28;;;;;;;8.00;6.97;;;;;;;5.61;64.71;95876.72;5029752;28;20190;-69
2023/04/20 03:27:54;;;;;;;9.50;6.47;;;;;;;5.57;66.21;95880.31;5030317;28;20176;-67
2023/04/20 03:30:19;;;;;;;8.87;6.37;;;;;;;5.50;65.75;95882.28;5029294;28;20326;-69
2023/04/20 03:32:45;;;;;;;7.13;6.43;;;;;;;5.39;65.89;95877.44;5029109;28;20188;-67
2023/04/20 03:35:10;;;;;;;8.80;7.27;;;;;;;5.45;66.09;95878.97;5029136;28;20180;-67
2023/04/20 03:37:36;;;;;;;9.77;7.40;;;;;;;5.34;66.58;95876.72;5028925;28;20210;-69
2023/04/20 03:40:02;;;;;;;8.90;7.53;;;;;;;5.02;67.28;95877.72;5028713;28;20187;-68
2023/04/20 03:42:29;;;;;;;20.33;7.53;;;;;;;4.95;68.45;95871.84;5029072;28;20492;-69
2023/04/20 03:44:54;;;;;;;10.13;8.07;;;;;;;5.02;68.30;95868.16;5029062;28;20196;-69
2023/04/20 03:47:20;;;;;;;14.83;8.57;;;;;;;4.60;69.32;95872.88;5028589;28;20418;-69
2023/04/20 03:49:45;;;;;;;18.70;9.90;;;;;;;4.79;69.89;95861.03;5028910;28;20275;-68
2023/04/20 03:52:10;;;;;;;9.57;7.57;;;;;;;4.92;68.74;95863.31;5028701;28;20195;-69
2023/04/20 03:54:36;;;;;;;9.67;7.90;;;;;;;4.64;70.34;95862.34;5028599;28;20195;-68
2023/04/20 03:57:02;;;;;;;14.57;9.97;;;;;;;5.14;68.49;95868.69;5028493;28;20259;-68
2023/04/20 03:59:27;;;;;;;11.27;10.17;;;;;;;5.02;69.01;95859.50;5028529;28;20179;-68
2023/04/20 04:01:53;;;;;;;12.20;9.47;;;;;;;5.08;69.16;95854.97;5028284;28;20457;-68
2023/04/20 04:04:19;;;;;;;12.43;9.93;;;;;;;5.27;67.96;95857.00;5028578;28;20210;-68
2023/04/20 04:06:44;;;;;;;16.77;9.80;;;;;;;5.35;67.97;95859.34;5028360;28;20183;-68
2023/04/20 04:09:10;;;;;;;11.70;9.63;;;;;;;5.10;68.58;95852.31;5028684;28;20905;-69
2023/04/20 04:11:35;;;;;;;19.47;8.50;;;;;;;5.05;68.73;95847.25;5028642;28;20253;-69
2023/04/20 04:14:03;;;;;;;15.73;8.63;;;;;;;5.24;68.20;95852.75;5028478;28;20175;-69
2023/04/20 04:16:29;;;;;;;11.30;9.33;;;;;;;5.14;68.67;95843.53;5028551;28;20183;-69
2023/04/20 04:18:55;;;;;;;13.10;9.47;;;;;;;4.99;69.04;95852.66;5028421;28;20414;-69
2023/04/20 04:21:20;;;;;;;13.43;9.80;;;;;;;4.66;70.72;95850.19;5028785;28;20449;-69
2023/04/20 04:23:46;;;;;;;11.57;9.57;;;;;;;4.83;69.97;95857.47;5028545;28;20180;-69
2023/04/20 04:26:11;;;;;;;12.20;10.10;;;;;;;4.58;70.29;95859.09;5027746;28;20539;-69
2023/04/20 04:28:37;;;;;;;21.50;10.67;;;;;;;4.85;69.74;95853.06;5028195;28;20180;-69
2023/04/20 04:31:04;;;;;;;10.90;9.80;;;;;;;5.09;68.94;95850.63;5026358;28;20841;-69
2023/04/20 04:33:32;;;;;;;10.90;9.80;;;;;;;5.19;68.66;95851.19;4996301;28;20224;-70
2023/04/20 04:35:58;;;;;;;12.13;10.40;;;;;;;5.05;68.99;95841.22;4987470;28;20420;-70
2023/04/20 04:38:23;;;;;;;15.60;10.13;;;;;;;5.03;69.43;95843.00;5000983;28;21244;-70
2023/04/20 04:40:48;;;;;;;16.83;10.70;;;;;;;5.11;69.84;95851.44;4993068;28;20205;-69
2023/04/20 04:43:14;;;;;;;15.47;11.27;;;;;;;4.78;70.78;95845.50;4988430;28;20204;-68
2023/04/20 04:45:40;;;;;;;18.87;11.07;;;;;;;4.62;72.16;95847.72;4988604;28;20740;-69
2023/04/20 04:48:07;;;;;;;16.43;11.90;;;;;;;4.50;72.33;95848.06;4988689;28;20416;-69
2023/04/20 04:50:32;;;;;;;14.30;11.27;;;;;;;4.38;72.75;95849.28;4988690;28;20316;-69
2023/04/20 04:52:58;;;;;;;14.03;12.63;;;;;;;4.52;72.64;95856.69;4988623;28;20515;-69
2023/04/20 04:55:23;;;;;;;12.73;11.50;;;;;;;4.55;72.51;95851.38;4988439;28;20595;-69
2023/04/20 04:57:49;;;;;;;17.00;12.77;;;;;;;4.70;72.09;95844.88;4988140;28;20173;-69
2023/04/20 05:00:15;;;;;;;12.50;11.20;;;;;;;4.59;71.84;95853.00;4988357;28;20201;-69
2023/04/20 05:02:40;;;;;;;12.07;10.27;;;;;;;4.54;71.65;95831.50;4987972;28;20321;-69
2023/04/20 05:05:07;;;;;;;11.10;9.90;;;;;;;4.64;71.30;95840.72;4987900;28;21008;-69
2023/04/20 05:07:32;;;;;;;15.37;10.80;;;;;;;4.80;69.63;95839.38;4987988;28;20219;-69
2023/04/20 05:09:58;;;;;;;11.17;10.07;;;;;;;4.73;68.98;95850.84;4988083;28;20447;-69
2023/04/20 05:12:24;;;;;;;12.87;9.53;;;;;;;4.48;70.39;95850.72;4987303;28;20332;-68
2023/04/20 05:14:51;;;;;;;17.67;9.53;;;;;;;4.64;70.21;95849.38;4985337;28;20269;-69
2023/04/20 05:17:16;;;;;;;12.60;9.00;;;;;;;4.43;70.12;95850.00;4988785;28;20796;-69
2023/04/20 05:19:41;;;;;;;10.00;8.33;;;;;;;4.87;69.07;95855.63;4987700;28;20427;-68
2023/04/20 05:22:07;;;;;;;12.30;8.90;;;;;;;4.72;68.90;95862.13;4988399;28;20208;-69
2023/04/20 05:24:32;;;;;;;10.47;8.70;;;;;;;4.62;69.46;95858.09;4986382;28;20181;-70
2023/04/20 05:26:58;;;;;;;12.90;7.83;;;;;;;4.22;70.65;95854.03;4986235;28;20573;-68
2023/04/20 05:29:23;;;;;;;11.10;8.40;;;;;;;4.31;70.40;95866.78;4987611;28;20230;-68
2023/04/20 05:31:48;;;;;;;10.17;8.30;;;;;;;4.45;69.67;95856.84;4987450;28;20200;-68
2023/04/20 05:34:14;;;;;;;9.90;8.13;;;;;;;4.69;69.41;95854.44;4996361;28;20271;-69
2023/04/20 05:36:40;;;;;;;11.03;8.20;;;;;;;4.70;68.85;95861.34;5006804;28;20523;-69
2023/04/20 05:39:05;;;;;;;16.47;10.27;;;;;;;4.91;69.01;95853.78;5007422;28;20175;-70
2023/04/20 05:41:31;;;;;;;14.93;8.60;;;;;;;5.10;68.22;95854.91;5006937;28;20874;-68
2023/04/20 05:43:56;;;;;;;9.27;8.03;;;;;;;4.71;69.17;95857.00;4994371;28;20192;-69
2023/04/20 05:46:22;;;;;;;10.93;9.20;;;;;;;4.64;69.73;95857.16;4985419;28;20187;-69
2023/04/20 05:48:48;;;;;;;14.70;9.77;;;;;;;4.60;69.30;95852.09;4984806;28;20239;-69
2023/04/20 05:51:14;;;;;;;9.53;8.50;;;;;;;4.42;70.02;95866.50;4983699;28;20197;-71
2023/04/20 05:53:39;;;;;;;11.90;9.40;;;;;;;4.40;70.01;95861.31;4986041;28;20594;-68
2023/04/20 05:56:05;;;;;;;9.53;8.60;;;;;;;4.39;70.57;95853.56;4988002;28;20555;-70
2023/04/20 05:58:32;;;;;;;11.20;10.00;;;;;;;4.57;69.80;95860.84;4984888;28;20185;-70
2023/04/20 06:00:58;;;;;;;11.87;9.37;;;;;;;4.55;70.50;95853.97;4982341;28;20463;-70
2023/04/20 06:03:23;;;;;;;10.77;9.70;;;;;;;4.42;71.17;95859.53;4987266;28;20449;-69
2023/04/20 06:05:49;;;;;;;16.60;9.20;;;;;;;4.55;70.36;95862.63;4987290;28;20224;-69
2023/04/20 06:08:15;;;;;;;11.60;9.80;;;;;;;4.53;70.15;95861.81;4987257;28;20183;-69
2023/04/20 06:10:40;;;;;;;11.97;8.90;;;;;;;4.59;70.10;95859.03;4987501;28;20420;-69
2023/04/20 06:13:05;;;;;;;13.03;10.10;;;;;;;4.52;71.18;95865.31;4987438;28;20232;-69
2023/04/20 06:15:31;;;;;;;10.20;9.20;;;;;;;5.01;70.24;95868.22;4987304;28;20179;-69
2023/04/20 06:17:56;;;;;;;13.43;10.40;;;;;;;5.08;78.58;95861.94;4986361;28;20197;-69
2023/04/20 06:20:22;;;;;;;15.03;9.50;;;;;;;6.76;83.15;95855.31;4984274;28;20205;-70
2023/04/20 06:22:48;;;;;;;17.40;10.27;;;;;;;6.03;67.75;95851.03;4994330;28;20939;-69
2023/04/20 06:25:14;;;;;;;14.60;9.43;;;;;;;5.51;68.61;95855.38;4991582;28;20448;-68
2023/04/20 06:27:40;;;;;;;14.67;8.60;;;;;;;5.20;68.98;95858.94;4986830;28;20181;-70
2023/04/20 06:30:06;;;;;;;15.50;9.33;;;;;;;4.95;70.80;95845.00;4986597;28;20428;-69
2023/04/20 06:32:32;;;;;;;12.43;10.23;;;;;;;4.64;72.34;95854.56;4986799;28;21031;-69
2023/04/20 06:34:57;;;;;;;11.30;9.33;;;;;;;4.36;73.46;95858.84;5001895;28;20428;-69
2023/04/20 06:37:23;;;;;;;11.77;9.67;;;;;;;4.28;74.09;95853.03;4986970;28;20173;-69
2023/04/20 06:39:55;;;;;;;11.10;10.00;;;;;;;4.11;75.20;95854.34;4986955;28;20189;-69
2023/04/20 06:42:21;;;;;;;15.10;11.60;;;;;;;4.21;74.87;95852.34;4987298;28;20728;-69
2023/04/20 06:44:46;;;;;;;13.10;10.40;;;;;;;4.13;75.19;95852.53;4986974;28;20427;-69
2023/04/20 06:47:12;;;;;;;14.00;10.60;;;;;;;4.07;75.44;95847.53;4986769;28;20779;-69
2023/04/20 06:49:38;;;;;;;14.17;11.97;;;;;;;4.07;75.88;95849.28;4990525;28;20247;-69
2023/04/20 06:52:04;;;;;;;13.40;12.00;;;;;;;4.11;75.18;95849.16;4990333;28;20271;-69
2023/04/20 06:54:30;;;;;;;14.17;11.83;;;;;;;3.73;76.88;95844.97;4990458;28;20661;-69
2023/04/20 06:56:56;;;;;;;14.90;11.63;;;;;;;3.84;77.49;95845.53;4990297;28;20523;-69
2023/04/20 06:59:21;;;;;;;20.40;12.17;;;;;;;4.03;77.17;95854.53;4998747;28;20434;-69
2023/04/20 07:01:46;;;;;;;15.80;11.83;;;;;;;3.74;77.60;95849.28;4990450;28;20221;-71
2023/04/20 07:04:12;;;;;;;19.47;12.40;;;;;;;4.00;76.52;95846.84;4990801;28;20646;-69
2023/04/20 07:06:37;;;;;;;16.07;13.23;;;;;;;3.97;77.71;95844.34;4990221;28;20172;-70
2023/04/20 07:09:03;;;;;;;16.80;12.17;;;;;;;4.10;76.68;95849.19;4990400;28;20218;-70
2023/04/20 07:11:29;;;;;;;13.23;11.80;;;;;;;4.02;76.95;95847.66;4990102;28;20188;-69
2023/04/20 07:13:55;;;;;;;13.23;11.80;;;;;;;3.97;76.46;95839.16;4990466;28;20435;-69
2023/04/20 07:16:20;;;;;;;14.83;12.97;;;;;;;4.10;77.02;95847.44;4989994;28;20185;-69
2023/04/20 07:18:46;;;;;;;15.00;12.80;;;;;;;4.10;76.98;95846.59;4988892;28;20188;-69
2023/04/20 07:21:11;;;;;;;13.57;12.10;;;;;;;4.08;77.41;95848.38;4990172;28;20818;-69
2023/04/20 07:23:37;;;;;;;17.30;13.20;;;;;;;4.47;75.87;95845.56;4990599;28;20280;-69
2023/04/20 07:26:02;;;;;;;21.70;15.10;;;;;;;4.75;75.20;95840.38;4990101;28;20256;-69
2023/04/20 07:28:27;;;;;;;15.13;12.40;;;;;;;4.64;75.59;95840.72;5005382;28;20180;-68
2023/04/20 07:30:53;;;;;;;18.53;14.10;;;;;;;4.62;75.71;95843.34;4988490;28;20200;-70
2023/04/20 07:33:19;;;;;;;16.40;13.60;;;;;;;4.29;77.10;95845.19;4990095;28;20172;-69
2023/04/20 07:35:45;;;;;;;15.83;13.50;;;;;;;4.52;76.27;95841.09;4990198;28;20264;-69
2023/04/20 07:38:10;;;;;;;16.20;12.67;;;;;;;4.65;75.74;95843.28;4990387;28;20511;-69
2023/04/20 07:40:36;;;;;;;21.63;14.50;;;;;;;4.63;76.15;95845.06;4989952;28;20211;-69
2023/04/20 07:43:01;;;;;;;16.87;14.83;;;;;;;4.65;76.24;95842.41;4989532;28;20205;-69
2023/04/20 07:45:27;;;;;;;19.50;15.40;;;;;;;5.01;74.62;95847.41;4989768;28;20174;-69
2023/04/20 07:47:54;;;;;;;18.10;14.30;;;;;;;4.90;75.21;95849.50;4989580;28;20264;-69
2023/04/20 07:50:19;;;;;;;14.83;13.33;;;;;;;4.66;76.52;95850.19;4989814;28;20275;-69
2023/04/20 07:52:45;;;;;;;16.20;14.07;;;;;;;4.88;75.57;95855.56;4989497;28;20531;-71
2023/04/20 07:55:11;;;;;;;15.67;13.30;;;;;;;4.85;75.84;95855.69;4989669;28;20177;-70
2023/04/20 07:57:37;;;;;;;22.20;13.30;;;;;;;5.32;74.81;95849.91;4990018;28;20173;-69
2023/04/20 08:00:06;;;;;;;13.47;11.93;;;;;;;5.04;74.19;95849.91;4989505;28;20416;-69
2023/04/20 08:02:32;;;;;;;15.77;14.10;;;;;;;4.95;75.00;95850.19;4990338;28;20215;-68
2023/04/20 08:04:57;;;;;;;18.37;14.00;;;;;;;4.91;75.33;95861.59;4990070;28;20583;-69
2023/04/20 08:07:23;;;;;;;18.20;15.20;;;;;;;5.19;75.66;95849.41;4990173;28;20408;-70
2023/04/20 08:09:48;;;;;;;17.33;14.90;;;;;;;4.79;76.42;95853.25;4990228;28;20256;-69
2023/04/20 08:12:14;;;;;;;17.97;14.93;;;;;;;4.56;77.17;95847.88;4990250;28;20185;-69
2023/04/20 08:14:40;;;;;;;16.73;14.30;;;;;;;4.65;77.21;95852.81;4990805;28;20181;-69
2023/04/20 08:17:06;;;;;;;20.33;15.93;;;;;;;4.44;78.87;95849.97;4990069;28;20181;-69
2023/04/20 08:19:32;;;;;;;18.97;15.97;;;;;;;4.58;78.77;95852.16;4989999;28;20172;-69
2023/04/20 08:21:57;;;;;;;20.13;17.53;;;;;;;4.32;79.33;95855.47;4989158;28;20452;-69
2023/04/20 08:24:23;;;;;;;20.67;16.87;;;;;;;4.44;79.25;95847.34;4989522;28;20192;-68
2023/04/20 08:26:48;;;;;;;22.83;16.87;;;;;;;4.56;78.76;95847.88;4989260;28;20247;-69
2023/04/20 08:29:14;;;;;;;17.60;15.70;;;;;;;4.65;78.75;95845.00;4989480;28;20176;-70
2023/04/20 08:31:39;;;;;;;19.00;16.37;;;;;;;4.54;78.83;95840.16;4989265;28;20379;-69
2023/04/20 08:34:05;;;;;;;23.80;17.27;;;;;;;4.54;78.96;95842.75;4987858;28;20171;-69
2023/04/20 08:36:31;;;;;;;22.83;16.60;;;;;;;4.90;77.90;95831.28;4988800;28;20254;-69
2023/04/20 08:39:08;;;;;;;27.83;17.20;;;;;;;4.55;78.40;95825.41;4989517;28;20606;-69
2023/04/20 08:41:34;;;;;;;17.30;15.20;;;;;;;4.63;79.17;95833.81;4989282;28;20787;-70
2023/04/20 08:43:59;;;;;;;19.07;16.37;;;;;;;4.69;78.92;95827.59;4989804;28;20428;-71
2023/04/20 08:46:25;;;;;;;18.90;15.00;;;;;;;4.61;79.28;95830.44;4989364;28;20464;-70
2023/04/20 08:48:54;;;;;;;19.27;15.97;;;;;;;4.52;80.11;95820.31;4989356;28;20272;-70
2023/04/20 08:51:20;;;;;;;19.67;17.07;;;;;;;4.55;80.16;95821.03;4988574;28;20511;-70
2023/04/20 08:53:45;;;;;;;20.83;16.00;;;;;;;4.60;79.76;95826.94;4988976;28;20907;-68
2023/04/20 08:56:11;;;;;;;19.23;16.47;;;;;;;4.67;80.06;95825.03;4988049;28;20256;-69
2023/04/20 08:58:41;;;;;;;20.47;15.90;;;;;;;4.43;80.60;95830.06;4988878;28;20184;-68
2023/04/20 09:01:10;;;;;;;19.67;15.57;;;;;;;4.24;81.34;95821.94;4988875;28;20235;-70
2023/04/20 09:03:37;;;;;;;26.07;16.93;;;;;;;4.24;82.18;95827.13;4989053;28;20507;-70
2023/04/20 09:06:05;;;;;;;21.30;16.40;;;;;;;4.33;81.56;95830.38;4988412;28;20444;-69
2023/04/20 09:08:39;;;;;;;22.17;15.47;;;;;;;4.21;82.33;95822.03;4988397;28;20506;-69
2023/04/20 09:11:05;;;;;;;26.73;16.70;;;;;;;4.54;81.75;95819.34;4989340;28;20500;-69
2023/04/20 09:13:31;;;;;;;22.73;15.50;;;;;;;4.97;80.74;95812.00;4987478;28;20435;-70
2023/04/20 09:15:56;;;;;;;17.57;15.03;;;;;;;4.87;80.08;95819.25;4988169;28;20424;-69
2023/04/20 09:18:23;;;;;;;18.37;13.00;;;;;;;4.70;80.74;95813.69;4988633;28;20180;-69
2023/04/20 09:20:49;;;;;;;16.33;12.83;;;;;;;4.66;80.74;95811.19;4988552;28;20196;-69
2023/04/20 09:23:20;;;;;;;18.10;13.43;;;;;;;4.45;80.83;95807.47;4988430;28;20432;-69
2023/04/20 09:25:49;;;;;;;19.07;14.73;;;;;;;4.45;82.66;95793.66;4986263;28;20451;-69
2023/04/20 09:28:16;;;;;;;17.53;13.37;;;;;;;4.76;80.99;95783.16;4988242;28;20418;-69
2023/04/20 09:30:46;;;;;;;17.77;14.03;;;;;;;4.82;80.32;95775.19;4988202;28;20503;-69
2023/04/20 09:33:13;;;;;;;17.20;12.60;;;;;;;4.91;80.93;95771.44;4988248;28;20471;-69
2023/04/20 09:35:42;;;;;;;17.13;13.80;;;;;;;5.01;80.64;95764.22;4988046;28;20451;-69
2023/04/20 09:38:09;;;;;;;18.00;12.93;;;;;;;5.23;79.98;95759.16;4987899;28;20420;-70
2023/04/20 09:40:35;;;;;;;16.40;12.47;;;;;;;5.26;80.09;95762.47;4987897;28;20514;-70
2023/04/20 09:43:06;;;;;;;15.27;13.40;;;;;;;5.07;79.94;95761.41;4987649;28;20531;-69
2023/04/20 09:45:31;;;;;;;16.80;12.27;;;;;;;5.20;80.80;95778.31;4987812;28;20176;-68
2023/04/20 09:47:58;;;;;;;16.57;12.63;;;;;;;5.09;80.23;95764.81;4987319;28;20758;-70
2023/04/20 09:50:24;;;;;;;17.33;13.83;;;;;;;5.17;80.67;95781.00;4986503;28;20248;-70
2023/04/20 09:52:51;;;;;;;17.17;13.27;;;;;;;5.04;80.70;95785.75;4986586;28;20436;-70
2023/04/20 09:55:17;;;;;;;14.53;12.50;;;;;;;5.30;79.98;95774.50;4987611;28;20824;-71
2023/04/20 09:57:44;;;;;;;18.43;13.60;;;;;;;5.52;79.37;95777.22;4987417;28;20502;-69
2023/04/20 10:00:11;;;;;;;13.70;11.80;;;;;;;5.46;78.57;95780.03;4987479;28;20791;-69
2023/04/20 10:02:38;;;;;;;17.57;12.03;;;;;;;5.45;78.88;95793.94;4988264;28;20436;-69
2023/04/20 10:05:04;;;;;;;14.40;12.60;;;;;;;5.49;78.95;95787.75;4988155;28;20412;-69
2023/04/20 10:07:31;;;;;;;12.87;11.03;;;;;;;5.67;78.14;95786.28;4987510;28;20540;-70
2023/04/20 10:10:03;;;;;;;14.70;11.50;;;;;;;5.50;78.21;95791.19;4987376;28;20980;-70
2023/04/20 10:12:29;;;;;;;11.17;9.17;;;;;;;5.35;79.07;95792.56;4987447;28;20432;-70
2023/04/20 10:15:00;;;;;;;12.00;9.53;;;;;;;5.43;78.73;95784.50;4987509;28;20896;-68
2023/04/20 10:17:32;;;;;;;10.77;8.83;;;;;;;5.45;79.15;95785.28;4987634;28;20187;-70
2023/04/20 10:19:58;;;;;;;14.53;8.40;;;;;;;5.28;78.87;95791.91;4987324;28;20486;-70
2023/04/20 10:22:34;;;;;;;13.20;9.43;;;;;;;5.36;78.74;95783.00;4987686;28;20435;-70
2023/04/20 10:25:16;;;;;;;12.37;9.57;;;;;;;5.55;79.18;95773.69;4991658;28;20180;-69
2023/04/20 10:27:52;;;;;;;10.13;9.10;;;;;;;5.71;79.50;95785.25;4991205;28;20407;-69
2023/04/20 10:30:18;;;;;;;13.77;10.17;;;;;;;5.71;79.36;95780.03;4989714;28;20418;-69
2023/04/20 10:32:44;;;;;;;12.57;10.57;;;;;;;5.69;80.13;95779.28;4990868;28;20542;-69
2023/04/20 10:35:10;;;;;;;14.83;10.83;;;;;;;5.89;79.81;95781.16;4991212;28;20826;-70
2023/04/20 10:37:47;;;;;;;12.63;9.80;;;;;;;5.62;79.64;95776.91;4991481;28;20191;-70
2023/04/20 10:40:12;;;;;;;13.73;9.97;;;;;;;5.46;79.94;95780.03;4991566;28;20567;-69
2023/04/20 10:42:42;;;;;;;11.03;9.27;;;;;;;5.53;79.94;95778.09;4991414;28;20519;-69
2023/04/20 10:45:09;;;;;;;12.90;11.40;;;;;;;5.71;79.87;95769.63;4991429;28;20515;-69
2023/04/20 10:47:36;;;;;;;15.00;10.60;;;;;;;5.89;79.71;95768.13;4990928;28;20412;-71
2023/04/20 10:50:10;;;;;;;14.00;10.80;;;;;;;5.93;79.60;95768.91;4990395;28;20466;-70
2023/04/20 10:52:36;;;;;;;12.87;10.80;;;;;;;5.77;79.60;95765.13;4990736;28;20527;-70
2023/04/20 10:55:03;;;;;;;12.30;10.90;;;;;;;5.62;80.34;95763.88;4990725;28;20412;-70
2023/04/20 10:57:29;;;;;;;13.73;10.87;;;;;;;5.54;80.60;95761.56;4990829;28;20839;-69
2023/04/20 10:59:54;;;;;;;25.83;12.57;;;;;;;5.56;81.12;95764.97;4991997;28;20412;-69
2023/04/20 11:02:20;;;;;;;36.63;14.03;;;;;;;5.74;80.40;95755.69;4990342;28;20200;-69
2023/04/20 11:04:45;;;;;;;16.47;11.20;;;;;;;5.66;81.10;95753.31;4992577;28;20184;-69
2023/04/20 11:07:12;;;;;;;12.70;10.93;;;;;;;5.60;80.59;95753.56;4991648;28;20629;-70
2023/04/20 11:09:38;;;;;;;11.57;9.40;;;;;;;5.56;79.64;95741.53;4992312;28;20165;-70
2023/04/20 11:12:05;;;;;;;15.30;8.33;;;;;;;5.51;79.41;95740.84;4992049;28;20428;-69
2023/04/20 11:14:33;;;;;;;11.33;10.23;;;;;;;5.67;78.84;95733.34;4992058;28;20419;-70
2023/04/20 11:16:59;;;;;;;8.90;8.00;;;;;;;5.75;79.13;95733.09;4991545;28;20417;-69
2023/04/20 11:19:30;;;;;;;9.37;8.33;;;;;;;5.74;80.01;95727.03;4992034;28;20427;-70
2023/04/20 11:21:56;;;;;;;10.73;8.43;;;;;;;5.91;78.86;95734.25;4991557;28;20488;-70
2023/04/20 11:24:25;;;;;;;14.27;9.30;;;;;;;6.05;78.84;95725.97;4992307;28;20443;-69
2023/04/20 11:26:54;;;;;;;15.83;9.73;;;;;;;6.12;78.87;95723.06;4991982;28;20211;-70